Time;durP1;ratioP1;P1;durP2;ratioP2;P2;SDS_P1;SDS_P2;PMS_P1;PMS_P2;Temp;Humidity;BMP_temperature;BMP_pressure;BME280_temperature;BME280_humidity;BME280_pressure;Samples;Min_cycle;Max_cycle;Signal;HPM_P1;HPM_P2
2021/04/10 00:00:06;;;;;;;23.08;9.13;;;5.90;99.90;;;;;;4196833;28;20091;-75
2021/04/10 00:02:08;;;;;;;19.40;8.90;;;5.90;99.90;;;;;;4197370;28;20036;-75
2021/04/10 00:04:11;;;;;;;22.38;8.23;;;5.90;99.90;;;;;;4179230;28;20116;-75
2021/04/10 00:06:12;;;;;;;24.02;10.35;;;5.80;99.90;;;;;;4211672;28;20040;-75
2021/04/10 00:08:13;;;;;;;21.80;8.77;;;5.80;99.90;;;;;;4195689;28;20024;-75
2021/04/10 00:10:14;;;;;;;24.60;9.25;;;5.80;99.90;;;;;;4179470;28;20040;-75
2021/04/10 00:12:15;;;;;;;20.67;8.73;;;5.80;99.90;;;;;;4179313;28;20036;-75
2021/04/10 00:14:16;;;;;;;15.63;8.18;;;5.80;99.90;;;;;;4177275;28;20025;-75
2021/04/10 00:16:17;;;;;;;16.05;8.52;;;5.80;99.90;;;;;;4195184;28;20028;-75
2021/04/10 00:18:18;;;;;;;22.33;8.73;;;5.80;99.90;;;;;;4211532;28;20081;-75
2021/04/10 00:20:20;;;;;;;20.65;8.95;;;5.90;99.90;;;;;;4176312;28;20139;-75
2021/04/10 00:22:20;;;;;;;18.08;7.78;;;5.90;99.90;;;;;;4192976;28;20853;-75
2021/04/10 00:24:21;;;;;;;19.98;8.25;;;5.90;99.90;;;;;;4177810;28;20142;-76
2021/04/10 00:26:22;;;;;;;24.08;8.32;;;5.80;99.90;;;;;;4196080;28;20119;-75
2021/04/10 00:28:23;;;;;;;30.23;8.68;;;5.80;99.90;;;;;;4196021;28;20034;-75
2021/04/10 00:30:24;;;;;;;17.45;7.80;;;5.80;99.90;;;;;;4194641;28;20037;-75
2021/04/10 00:32:25;;;;;;;17.88;8.35;;;5.80;99.90;;;;;;4195125;28;20052;-75
2021/04/10 00:34:26;;;;;;;20.27;9.38;;;5.80;99.90;;;;;;4196196;28;20605;-75
2021/04/10 00:36:26;;;;;;;22.08;8.32;;;5.80;99.90;;;;;;4196384;28;20037;-75
2021/04/10 00:38:30;;;;;;;20.33;8.32;;;5.80;99.90;;;;;;4195376;28;20064;-75
2021/04/10 00:40:30;;;;;;;;;;;5.70;99.90;;;;;;4196091;28;20078;-75
2021/04/10 00:42:31;;;;;;;20.60;8.70;;;5.70;99.90;;;;;;4196064;28;19913;-76
2021/04/10 00:44:32;;;;;;;23.70;8.40;;;5.70;99.90;;;;;;4179581;28;20527;-75
2021/04/10 00:46:34;;;;;;;19.35;8.93;;;5.70;99.90;;;;;;4196145;28;20024;-76
2021/04/10 00:48:35;;;;;;;25.23;8.73;;;5.60;99.90;;;;;;4179637;28;20033;-75
2021/04/10 00:50:36;;;;;;;24.60;8.50;;;5.60;99.90;;;;;;4194504;28;20028;-77
2021/04/10 00:52:37;;;;;;;18.52;9.27;;;5.60;99.90;;;;;;4179412;28;20529;-77
2021/04/10 00:54:39;;;;;;;17.67;8.60;;;5.60;99.90;;;;;;4212078;28;20020;-76
2021/04/10 00:56:40;;;;;;;25.88;8.55;;;5.50;99.90;;;;;;4196243;28;20082;-76
2021/04/10 00:58:41;;;;;;;22.42;9.30;;;5.50;99.90;;;;;;4179361;28;20061;-77
2021/04/10 01:00:42;;;;;;;19.02;7.53;;;5.50;99.90;;;;;;4174922;28;20036;-77
2021/04/10 01:02:43;;;;;;;24.77;9.30;;;5.50;99.90;;;;;;4195266;28;20429;-74
2021/04/10 01:04:43;;;;;;;17.85;8.27;;;5.50;99.90;;;;;;4212602;28;20036;-77
2021/04/10 01:06:44;;;;;;;17.90;7.72;;;5.40;99.90;;;;;;4179406;28;20029;-75
2021/04/10 01:08:45;;;;;;;24.15;8.93;;;5.40;99.90;;;;;;4194610;28;20043;-75
2021/04/10 01:10:46;;;;;;;18.52;8.13;;;5.40;99.90;;;;;;4195932;28;20024;-75
2021/04/10 01:13:07;;;;;;;17.95;7.72;;;5.40;99.90;;;;;;4179270;28;20036;-75
2021/04/10 01:15:36;;;;;;;19.65;8.15;;;5.30;99.90;;;;;;4177672;28;20361;-75
2021/04/10 01:17:49;;;;;;;20.35;7.47;;;5.30;99.90;;;;;;4179156;28;20458;-75
2021/04/10 01:20:08;;;;;;;18.60;9.35;;;5.30;99.90;;;;;;4195708;28;20080;-75
2021/04/10 01:22:47;;;;;;;19.40;9.27;;;5.30;99.90;;;;;;4178993;28;20553;-75
2021/04/10 01:25:00;;;;;;;18.85;7.97;;;5.30;99.90;;;;;;4172426;28;20490;-75
2021/04/10 01:27:04;;;;;;;22.75;8.73;;;5.20;99.90;;;;;;4195619;28;20028;-76
2021/04/10 01:29:11;;;;;;;;;;;5.20;99.90;;;;;;4197292;28;20032;-75
2021/04/10 01:31:15;;;;;;;15.48;7.28;;;5.20;99.90;;;;;;4212387;28;19944;-75
2021/04/10 01:33:20;;;;;;;13.65;7.13;;;5.20;99.90;;;;;;4179003;28;20026;-75
2021/04/10 01:35:23;;;;;;;22.15;9.43;;;5.20;99.90;;;;;;4179027;28;20078;-75
2021/04/10 01:37:30;;;;;;;21.17;8.55;;;5.20;99.90;;;;;;4195469;28;20033;-75
2021/04/10 01:39:33;;;;;;;17.90;8.43;;;5.10;99.90;;;;;;4178800;28;20080;-75
2021/04/10 01:41:34;;;;;;;;;;;5.10;99.90;;;;;;4179201;28;20083;-76
2021/04/10 01:43:37;;;;;;;20.40;8.10;;;5.10;99.90;;;;;;4195425;28;19935;-75
2021/04/10 01:45:40;;;;;;;19.02;7.80;;;5.00;99.90;;;;;;4195231;28;20104;-75
2021/04/10 01:47:43;;;;;;;24.73;9.07;;;5.00;99.90;;;;;;4178639;28;20037;-75
2021/04/10 01:49:47;;;;;;;20.10;8.15;;;5.00;99.90;;;;;;4178861;28;20033;-75
2021/04/10 01:51:49;;;;;;;16.23;7.78;;;4.90;99.90;;;;;;4178774;28;20484;-75
2021/04/10 01:53:50;;;;;;;15.88;8.00;;;4.90;99.90;;;;;;4178521;28;20036;-75
2021/04/10 01:55:52;;;;;;;20.13;8.65;;;4.80;99.90;;;;;;4195549;28;20472;-75
2021/04/10 01:57:54;;;;;;;18.50;8.95;;;4.80;99.90;;;;;;4195533;28;20116;-76
2021/04/10 01:59:58;;;;;;;28.33;10.30;;;4.70;99.90;;;;;;4196357;28;20037;-75
2021/04/10 02:01:59;;;;;;;22.15;9.20;;;4.70;99.90;;;;;;4195127;28;20123;-75
2021/04/10 02:04:00;;;;;;;17.52;8.85;;;4.60;99.90;;;;;;4194873;28;20036;-76
2021/04/10 02:06:02;;;;;;;20.90;9.10;;;4.60;99.90;;;;;;4177916;28;20056;-76
2021/04/10 02:08:04;;;;;;;22.92;8.82;;;4.60;99.90;;;;;;4178214;28;20036;-75
2021/04/10 02:10:07;;;;;;;16.27;8.40;;;4.60;99.90;;;;;;4194976;28;20024;-75
2021/04/10 02:12:08;;;;;;;27.60;7.78;;;4.60;99.90;;;;;;4178323;28;20041;-75
2021/04/10 02:14:12;;;;;;;23.92;10.13;;;4.60;99.90;;;;;;4178758;28;20036;-75
2021/04/10 02:16:13;;;;;;;;;;;4.60;99.90;;;;;;4195231;28;20024;-77
2021/04/10 02:18:14;;;;;;;20.13;7.50;;;4.60;99.90;;;;;;4177944;28;20350;-75
2021/04/10 02:20:17;;;;;;;19.08;8.48;;;4.60;99.90;;;;;;4178030;28;20033;-75
2021/04/10 02:22:20;;;;;;;18.20;8.20;;;4.70;99.90;;;;;;4194008;28;20045;-75
2021/04/10 02:24:21;;;;;;;20.00;8.52;;;4.70;99.90;;;;;;4194651;28;20052;-75
2021/04/10 02:26:21;;;;;;;23.48;9.80;;;4.70;99.90;;;;;;4178201;28;20475;-75
2021/04/10 02:28:22;;;;;;;18.30;7.75;;;4.80;99.90;;;;;;4194408;28;20507;-75
2021/04/10 02:30:24;;;;;;;16.67;8.23;;;4.70;99.90;;;;;;4194924;28;20448;-76
2021/04/10 02:32:39;;;;;;;16.20;8.32;;;4.70;99.90;;;;;;4194630;28;20480;-76
2021/04/10 02:35:09;;;;;;;21.63;8.13;;;4.70;99.90;;;;;;4194467;28;20029;-76
2021/04/10 02:37:10;;;;;;;15.82;9.02;;;4.80;99.90;;;;;;4181314;28;20032;-75
2021/04/10 02:39:12;;;;;;;20.30;8.25;;;4.80;99.90;;;;;;4177892;28;20108;-75
2021/04/10 02:41:30;;;;;;;19.75;8.57;;;4.80;99.90;;;;;;4194238;28;20119;-75
2021/04/10 02:43:35;;;;;;;18.75;8.13;;;4.80;99.90;;;;;;4177894;28;20036;-76
2021/04/10 02:45:37;;;;;;;32.15;8.80;;;4.80;99.90;;;;;;4189308;28;20040;-75
2021/04/10 02:47:42;;;;;;;19.20;9.00;;;4.80;99.90;;;;;;4194609;28;20037;-75
2021/04/10 02:49:49;;;;;;;18.55;7.85;;;4.80;99.90;;;;;;4176539;28;20107;-75
2021/04/10 02:51:58;;;;;;;22.17;8.15;;;4.80;99.90;;;;;;4203794;28;20068;-75
2021/04/10 02:54:04;;;;;;;19.10;8.05;;;4.80;99.90;;;;;;4194253;28;20482;-76
2021/04/10 02:56:06;;;;;;;17.02;7.38;;;4.80;99.90;;;;;;4194240;28;20091;-76
2021/04/10 02:58:12;;;;;;;17.77;8.20;;;4.70;99.90;;;;;;4177900;28;20538;-76
2021/04/10 03:00:17;;;;;;;20.13;8.77;;;4.70;99.90;;;;;;4194378;28;20037;-76
2021/04/10 03:02:20;;;;;;;19.17;8.35;;;4.70;99.90;;;;;;4194655;28;20036;-75
2021/04/10 03:04:21;;;;;;;22.67;8.00;;;4.70;99.90;;;;;;4177682;28;21038;-76
2021/04/10 03:06:23;;;;;;;19.90;8.93;;;4.70;99.90;;;;;;4200796;28;20058;-76
2021/04/10 03:08:24;;;;;;;21.05;8.70;;;4.70;99.90;;;;;;4193834;28;20045;-76
2021/04/10 03:10:26;;;;;;;17.23;8.10;;;4.70;99.90;;;;;;4193870;28;20032;-75
2021/04/10 03:12:27;;;;;;;25.65;9.10;;;4.60;99.90;;;;;;4193563;28;20057;-75
2021/04/10 03:14:28;;;;;;;20.42;9.00;;;4.60;99.90;;;;;;4170577;28;20041;-76
2021/04/10 03:16:30;;;;;;;15.52;8.48;;;4.60;99.90;;;;;;4160078;28;20386;-75
2021/04/10 03:18:31;;;;;;;18.88;8.98;;;4.50;99.90;;;;;;4191508;28;20044;-75
2021/04/10 03:20:32;;;;;;;20.85;9.35;;;4.50;99.90;;;;;;4193802;28;20056;-75
2021/04/10 03:22:33;;;;;;;19.52;8.95;;;4.40;99.90;;;;;;4193481;28;20032;-75
2021/04/10 03:24:34;;;;;;;14.13;8.82;;;4.40;99.90;;;;;;4194576;28;20041;-75
2021/04/10 03:26:35;;;;;;;20.15;9.57;;;4.30;99.90;;;;;;4200134;28;20036;-75
2021/04/10 03:28:38;;;;;;;17.48;8.68;;;4.30;99.90;;;;;;4178087;28;20029;-75
2021/04/10 03:30:40;;;;;;;19.00;9.07;;;4.30;99.90;;;;;;4180657;28;20377;-75
2021/04/10 03:32:43;;;;;;;20.00;9.20;;;4.30;99.90;;;;;;4198146;28;20283;-76
2021/04/10 03:34:45;;;;;;;21.50;9.07;;;4.30;99.90;;;;;;4197058;28;20147;-75
2021/04/10 03:36:46;;;;;;;22.35;9.63;;;4.30;99.90;;;;;;4196925;28;20035;-76
2021/04/10 03:38:47;;;;;;;19.05;9.70;;;4.30;99.90;;;;;;4197524;28;20476;-75
2021/04/10 03:40:48;;;;;;;18.35;8.48;;;4.30;99.90;;;;;;4197419;28;20043;-75
2021/04/10 03:42:49;;;;;;;20.00;8.65;;;4.30;99.90;;;;;;4180196;28;20144;-75
2021/04/10 03:44:50;;;;;;;21.15;9.73;;;4.30;99.90;;;;;;4179840;28;20033;-75
2021/04/10 03:46:52;;;;;;;26.33;9.27;;;4.30;99.90;;;;;;4188483;28;20083;-76
2021/04/10 03:48:52;;;;;;;16.42;8.85;;;4.30;99.90;;;;;;4180418;28;20044;-75
2021/04/10 03:50:53;;;;;;;19.27;8.77;;;4.30;99.90;;;;;;4180497;28;20425;-75
2021/04/10 03:52:54;;;;;;;16.73;8.43;;;4.20;99.90;;;;;;4197027;28;20039;-76
2021/04/10 03:54:55;;;;;;;23.23;9.43;;;4.20;99.90;;;;;;4200525;28;20074;-76
2021/04/10 03:56:56;;;;;;;19.92;8.30;;;4.20;99.90;;;;;;4180388;28;20037;-76
2021/04/10 03:58:57;;;;;;;17.40;9.40;;;4.20;99.90;;;;;;4183845;28;20060;-76
2021/04/10 04:00:58;;;;;;;23.52;9.13;;;4.20;99.90;;;;;;4197159;28;20509;-75
2021/04/10 04:02:58;;;;;;;19.90;8.88;;;4.30;99.90;;;;;;4180357;28;20029;-75
2021/04/10 04:04:59;;;;;;;19.88;9.20;;;4.30;99.90;;;;;;4191520;28;20024;-76
2021/04/10 04:07:02;;;;;;;19.70;8.10;;;4.20;99.90;;;;;;4197182;28;20027;-76
2021/04/10 04:09:02;;;;;;;20.00;9.02;;;4.20;99.90;;;;;;4196352;28;20086;-76
2021/04/10 04:11:05;;;;;;;22.92;8.90;;;4.20;99.90;;;;;;4197104;28;20511;-76
2021/04/10 04:13:05;;;;;;;25.17;10.05;;;4.30;99.90;;;;;;4196981;28;20058;-76
2021/04/10 04:15:07;;;;;;;20.63;7.85;;;4.30;99.90;;;;;;4196251;28;20021;-75
2021/04/10 04:17:08;;;;;;;23.23;8.30;;;4.30;99.90;;;;;;4196060;28;20028;-76
2021/04/10 04:19:09;;;;;;;19.65;8.38;;;4.30;99.90;;;;;;4202477;28;20111;-76
2021/04/10 04:21:09;;;;;;;15.43;8.05;;;4.30;99.90;;;;;;4195354;28;20040;-76
2021/04/10 04:23:10;;;;;;;18.48;8.52;;;4.30;99.90;;;;;;4193528;28;20029;-76
2021/04/10 04:25:12;;;;;;;15.43;8.63;;;4.30;99.90;;;;;;4177162;28;20660;-76
2021/04/10 04:27:12;;;;;;;20.80;8.93;;;4.30;99.90;;;;;;4177637;28;20321;-76
2021/04/10 04:29:13;;;;;;;20.48;8.52;;;4.30;99.90;;;;;;4176370;28;20112;-76
2021/04/10 04:31:15;;;;;;;18.13;8.20;;;4.30;99.90;;;;;;4170894;28;20028;-76
2021/04/10 04:33:15;;;;;;;16.95;8.32;;;4.40;99.90;;;;;;4190140;28;20093;-76
2021/04/10 04:35:16;;;;;;;19.85;8.10;;;4.40;99.90;;;;;;4194948;28;20055;-76
2021/04/10 04:37:18;;;;;;;16.65;8.48;;;4.40;99.90;;;;;;4195303;28;20029;-75
2021/04/10 04:39:19;;;;;;;18.02;8.85;;;4.40;99.90;;;;;;4179672;28;20032;-75
2021/04/10 04:41:21;;;;;;;22.27;9.25;;;4.40;99.90;;;;;;4197267;28;20051;-76
2021/04/10 04:43:22;;;;;;;19.02;8.90;;;4.40;99.90;;;;;;4196582;28;20033;-75
2021/04/10 04:45:24;;;;;;;13.68;7.78;;;4.40;99.90;;;;;;4177883;28;20039;-75
2021/04/10 04:47:24;;;;;;;22.27;9.40;;;4.30;99.90;;;;;;4179509;28;20029;-75
2021/04/10 04:49:25;;;;;;;25.20;9.50;;;4.40;99.90;;;;;;4169638;28;20029;-75
2021/04/10 04:51:26;;;;;;;18.75;8.82;;;4.40;99.90;;;;;;4195350;28;20035;-75
2021/04/10 04:53:27;;;;;;;25.08;9.90;;;4.40;99.90;;;;;;4194333;28;20105;-75
2021/04/10 04:55:27;;;;;;;15.57;8.55;;;4.40;99.90;;;;;;4179182;28;20048;-75
2021/04/10 04:57:28;;;;;;;21.58;9.13;;;4.40;99.90;;;;;;4196623;28;20131;-76
2021/04/10 04:59:29;;;;;;;19.65;8.95;;;4.40;99.90;;;;;;4167079;28;20038;-75
2021/04/10 05:01:30;;;;;;;13.55;7.78;;;4.40;99.90;;;;;;4211162;28;20032;-75
2021/04/10 05:03:31;;;;;;;26.67;10.35;;;4.40;99.90;;;;;;4195692;28;20340;-75
2021/04/10 05:05:31;;;;;;;19.98;8.88;;;4.40;99.90;;;;;;4195767;28;20028;-75
2021/04/10 05:07:32;;;;;;;22.35;8.65;;;4.40;99.90;;;;;;4176511;28;20063;-75
2021/04/10 05:09:33;;;;;;;17.05;9.27;;;4.40;99.90;;;;;;4195476;28;20036;-75
2021/04/10 05:11:34;;;;;;;17.92;7.45;;;4.40;99.90;;;;;;4165610;28;20029;-75
2021/04/10 05:13:35;;;;;;;19.02;8.52;;;4.40;99.90;;;;;;4188061;28;20087;-75
2021/04/10 05:15:36;;;;;;;16.80;8.40;;;4.50;99.90;;;;;;4194372;28;20028;-75
2021/04/10 05:17:37;;;;;;;17.08;8.77;;;4.20;99.90;;;;;;4194701;28;20040;-75
2021/04/10 05:19:38;;;;;;;23.23;8.73;;;4.50;99.90;;;;;;4191307;28;20491;-75
2021/04/10 05:21:38;;;;;;;23.33;9.10;;;4.50;99.90;;;;;;4195535;28;20028;-75
2021/04/10 05:23:40;;;;;;;22.77;8.75;;;4.60;99.90;;;;;;4175218;28;20043;-75
2021/04/10 05:25:40;;;;;;;16.23;8.07;;;4.60;99.90;;;;;;4192699;28;20037;-76
2021/04/10 05:27:41;;;;;;;12.73;7.75;;;4.60;99.90;;;;;;4187892;28;20090;-75
2021/04/10 05:29:42;;;;;;;19.05;8.25;;;4.70;99.90;;;;;;4193172;28;20032;-75
2021/04/10 05:31:43;;;;;;;10.73;7.47;;;4.70;99.90;;;;;;4183495;28;20044;-76
2021/04/10 05:33:44;;;;;;;19.73;8.75;;;4.70;99.90;;;;;;4176619;28;20056;-76
2021/04/10 05:35:45;;;;;;;23.70;7.78;;;4.80;99.90;;;;;;4165133;28;20544;-75
2021/04/10 05:37:45;;;;;;;14.20;7.47;;;4.80;99.90;;;;;;4193414;28;20110;-75
2021/04/10 05:39:47;;;;;;;11.90;6.22;;;4.80;99.90;;;;;;4178325;28;20122;-76
2021/04/10 05:41:47;;;;;;;13.23;7.60;;;4.90;99.90;;;;;;4187079;28;20119;-75
2021/04/10 05:43:48;;;;;;;15.68;6.53;;;4.90;99.90;;;;;;4168908;28;20040;-75
2021/04/10 05:45:49;;;;;;;18.38;6.45;;;5.00;99.90;;;;;;4200676;28;20087;-75
2021/04/10 05:47:50;;;;;;;21.02;6.90;;;5.00;99.90;;;;;;4177844;28;20029;-76
2021/04/10 05:49:51;;;;;;;25.45;7.28;;;5.00;99.90;;;;;;4178027;28;20523;-75
2021/04/10 05:51:52;;;;;;;14.93;7.07;;;5.00;99.90;;;;;;4194666;28;20495;-75
2021/04/10 05:53:52;;;;;;;15.77;6.07;;;5.00;99.90;;;;;;4195987;28;20039;-75
2021/04/10 05:55:54;;;;;;;16.58;6.13;;;5.10;99.90;;;;;;4184114;28;20040;-75
2021/04/10 05:57:55;;;;;;;20.15;6.70;;;5.00;99.90;;;;;;4166632;28;20038;-75
2021/04/10 05:59:56;;;;;;;17.35;6.40;;;5.20;99.90;;;;;;4194181;28;20031;-75
2021/04/10 06:01:57;;;;;;;13.82;6.82;;;5.20;99.90;;;;;;4183897;28;20399;-75
2021/04/10 06:03:58;;;;;;;21.38;7.20;;;5.30;99.90;;;;;;4194248;28;20792;-76
2021/04/10 06:05:59;;;;;;;12.65;6.60;;;5.30;99.90;;;;;;4183312;28;20073;-75
2021/04/10 06:08:00;;;;;;;14.32;6.78;;;5.30;99.90;;;;;;4208921;28;20034;-75
2021/04/10 06:10:03;;;;;;;17.67;8.05;;;5.30;99.90;;;;;;4163290;28;20038;-75
2021/04/10 06:12:04;;;;;;;26.02;8.13;;;5.40;99.90;;;;;;4180287;28;20139;-75
2021/04/10 06:14:05;;;;;;;14.93;6.85;;;5.40;99.90;;;;;;4203253;28;20055;-75
2021/04/10 06:16:07;;;;;;;16.02;6.72;;;5.40;99.90;;;;;;4175836;28;20032;-76
2021/04/10 06:18:08;;;;;;;18.63;7.15;;;5.40;99.90;;;;;;4209578;28;20028;-75
2021/04/10 06:20:10;;;;;;;22.55;7.47;;;5.50;99.90;;;;;;4177908;28;20033;-75
2021/04/10 06:22:11;;;;;;;15.93;7.47;;;5.50;99.90;;;;;;4177527;28;20033;-75
2021/04/10 06:24:14;;;;;;;24.60;6.85;;;5.60;99.90;;;;;;4192566;28;20037;-75
2021/04/10 06:26:15;;;;;;;22.63;8.50;;;5.80;99.90;;;;;;4179728;28;20040;-75
2021/04/10 06:28:15;;;;;;;18.88;6.93;;;5.80;99.90;;;;;;4207191;28;20414;-75
2021/04/10 06:30:17;;;;;;;22.10;7.93;;;5.90;99.90;;;;;;4178571;28;20091;-75
2021/04/10 06:32:17;;;;;;;14.13;6.65;;;6.00;99.90;;;;;;4210930;28;20062;-76
2021/04/10 06:34:18;;;;;;;23.60;7.30;;;6.00;99.90;;;;;;4193630;28;20048;-75
2021/04/10 06:36:20;;;;;;;12.65;7.20;;;6.00;99.90;;;;;;4192099;28;20068;-75
2021/04/10 06:38:21;;;;;;;19.10;7.38;;;6.00;99.90;;;;;;4193117;28;20056;-75
2021/04/10 06:40:22;;;;;;;13.00;6.35;;;6.00;99.90;;;;;;4209048;28;20052;-76
2021/04/10 06:42:22;;;;;;;11.45;6.50;;;5.90;99.90;;;;;;4193369;28;20351;-75
2021/04/10 06:44:23;;;;;;;19.65;6.97;;;5.90;99.90;;;;;;4175596;28;20075;-75
2021/04/10 06:46:26;;;;;;;17.67;7.00;;;6.00;99.90;;;;;;4194053;28;20166;-75
2021/04/10 06:48:29;;;;;;;16.75;7.57;;;6.10;99.90;;;;;;4177850;28;20488;-74
2021/04/10 06:50:30;;;;;;;13.27;6.45;;;6.30;99.90;;;;;;4193379;28;20048;-76
2021/04/10 06:52:37;;;;;;;17.58;6.55;;;6.30;99.90;;;;;;4194860;28;20480;-77
2021/04/10 06:54:39;;;;;;;14.73;7.22;;;6.40;99.90;;;;;;4175593;28;20455;-76
2021/04/10 06:56:49;;;;;;;13.00;7.85;;;6.40;99.90;;;;;;4177142;28;20048;-76
2021/04/10 06:59:13;;;;;;;15.35;7.55;;;6.40;99.90;;;;;;4192244;28;20041;-75
2021/04/10 07:01:17;;;;;;;20.02;7.90;;;6.40;99.90;;;;;;4193760;28;20573;-76
2021/04/10 07:03:20;;;;;;;16.10;7.72;;;6.30;99.90;;;;;;4194289;28;20150;-76
2021/04/10 07:05:21;;;;;;;12.52;7.90;;;6.40;99.90;;;;;;4194086;28;20044;-75
2021/04/10 07:07:24;;;;;;;23.30;8.82;;;6.40;99.90;;;;;;4177479;28;20029;-75
2021/04/10 07:09:26;;;;;;;21.08;8.30;;;6.50;99.90;;;;;;4194452;28;20062;-74
2021/04/10 07:11:27;;;;;;;17.17;7.80;;;6.50;99.90;;;;;;4194635;28;20032;-76
2021/04/10 07:13:27;;;;;;;15.40;9.13;;;6.60;99.90;;;;;;4177771;28;20048;-75
2021/04/10 07:15:29;;;;;;;14.82;8.10;;;6.60;99.90;;;;;;4194496;28;20094;-77
2021/04/10 07:17:30;;;;;;;16.90;8.27;;;6.60;99.90;;;;;;4177459;28;20032;-75
2021/04/10 07:19:31;;;;;;;16.27;6.82;;;6.70;99.90;;;;;;4177763;28;20087;-76
2021/04/10 07:21:31;;;;;;;14.80;7.10;;;6.80;99.90;;;;;;4210991;28;20028;-74
2021/04/10 07:23:56;;;;;;;18.70;7.63;;;6.80;99.90;;;;;;4177430;28;20037;-75
2021/04/10 07:25:57;;;;;;;12.70;6.05;;;6.80;99.90;;;;;;4190853;28;20040;-76
2021/04/10 07:28:27;;;;;;;10.13;7.53;;;6.80;99.90;;;;;;4192925;28;20039;-75
2021/04/10 07:30:28;;;;;;;13.68;6.80;;;6.90;99.90;;;;;;4175373;28;20491;-75
2021/04/10 07:32:36;;;;;;;11.77;5.57;;;7.10;99.90;;;;;;4176454;28;20037;-75
2021/04/10 07:34:44;;;;;;;9.85;5.30;;;7.10;99.90;;;;;;4193386;28;20032;-75
2021/04/10 07:37:01;;;;;;;11.75;5.97;;;7.20;99.90;;;;;;4194998;28;20067;-76
2021/04/10 07:39:02;;;;;;;11.38;5.35;;;7.30;99.90;;;;;;4175773;28;20048;-76
2021/04/10 07:41:17;;;;;;;10.07;5.65;;;7.40;99.90;;;;;;4172227;28;20025;-76
2021/04/10 07:43:26;;;;;;;10.98;5.22;;;7.60;99.90;;;;;;4204761;28;20040;-76
2021/04/10 07:45:35;;;;;;;19.48;5.90;;;7.70;99.90;;;;;;4188986;28;20079;-76
2021/04/10 07:47:39;;;;;;;10.48;5.53;;;7.70;99.90;;;;;;4205730;28;20676;-76
2021/04/10 07:49:40;;;;;;;11.40;4.82;;;7.80;99.90;;;;;;4187718;28;20395;-76
2021/04/10 07:51:55;;;;;;;12.73;5.00;;;7.80;99.90;;;;;;4193010;28;20135;-77
2021/04/10 07:53:58;;;;;;;9.90;4.90;;;7.80;99.90;;;;;;4193789;28;20529;-76
2021/04/10 07:56:00;;;;;;;12.13;4.82;;;7.80;99.90;;;;;;4177348;28;20031;-76
2021/04/10 07:58:33;;;;;;;10.13;5.57;;;7.90;99.90;;;;;;4176713;28;20033;-77
2021/04/10 08:00:44;;;;;;;10.07;5.53;;;8.00;99.90;;;;;;4193077;28;20040;-75
2021/04/10 08:02:46;;;;;;;5.50;4.00;;;8.20;99.90;;;;;;4192976;28;20463;-77
2021/04/10 08:05:07;;;;;;;27.85;5.45;;;8.20;99.90;;;;;;4190660;28;20060;-77
2021/04/10 08:07:11;;;;;;;12.82;4.45;;;8.10;99.90;;;;;;4183564;28;20426;-76
2021/04/10 08:09:28;;;;;;;11.95;4.70;;;8.10;99.90;;;;;;4168942;28;20485;-75
2021/04/10 08:11:41;;;;;;;13.40;5.93;;;8.00;99.90;;;;;;4179199;28;20116;-79
2021/04/10 08:14:08;;;;;;;7.32;4.30;;;8.20;99.90;;;;;;4197049;28;20020;-77
2021/04/10 08:16:17;;;;;;;14.00;5.90;;;8.30;99.90;;;;;;4176915;28;20037;-79
2021/04/10 08:18:22;;;;;;;12.45;5.70;;;8.40;99.90;;;;;;4195815;28;20167;-80
2021/04/10 08:20:30;;;;;;;7.57;4.43;;;8.70;99.90;;;;;;4178191;28;20091;-80
2021/04/10 08:22:30;;;;;;;9.10;4.15;;;8.80;99.90;;;;;;4195074;28;20035;-81
2021/04/10 08:24:38;;;;;;;12.18;4.47;;;8.90;99.90;;;;;;4193337;28;20052;-80
2021/04/10 08:26:39;;;;;;;8.57;4.57;;;8.90;99.90;;;;;;4183975;28;20055;-80
2021/04/10 08:28:41;;;;;;;9.57;4.78;;;8.70;99.90;;;;;;4209823;28;20586;-79
2021/04/10 08:30:43;;;;;;;9.80;4.50;;;8.60;99.90;;;;;;4165975;28;20030;-80
2021/04/10 08:32:44;;;;;;;10.00;5.07;;;8.50;99.90;;;;;;4192538;28;20032;-79
2021/04/10 08:34:44;;;;;;;9.57;5.05;;;8.50;99.90;;;;;;4179419;28;20711;-80
2021/04/10 08:37:00;;;;;;;9.57;6.18;;;8.50;99.90;;;;;;4183751;28;20044;-80
2021/04/10 08:39:01;;;;;;;10.32;6.25;;;8.60;99.90;;;;;;4177952;28;20033;-81
2021/04/10 08:41:06;;;;;;;12.55;7.20;;;8.70;99.90;;;;;;4187460;28;20025;-78
2021/04/10 08:43:09;;;;;;;12.02;6.30;;;8.90;99.90;;;;;;4195100;28;20035;-84
2021/04/10 08:45:10;;;;;;;10.60;5.30;;;8.80;99.90;;;;;;4192769;28;20052;-80
2021/04/10 08:47:12;;;;;;;10.70;5.07;;;8.80;99.90;;;;;;4197950;28;20027;-80
2021/04/10 08:49:15;;;;;;;8.43;4.60;;;8.90;99.90;;;;;;4192357;28;20020;-79
2021/04/10 08:51:16;;;;;;;11.43;5.22;;;9.00;99.90;;;;;;4179047;28;20041;-82
2021/04/10 08:53:31;;;;;;;12.35;5.93;;;9.00;99.90;;;;;;4195344;28;20032;-80
2021/04/10 08:55:33;;;;;;;10.02;4.45;;;9.00;99.90;;;;;;4195778;28;20476;-78
2021/04/10 08:57:42;;;;;;;10.15;4.78;;;9.20;99.90;;;;;;4194996;28;20041;-79
2021/04/10 08:59:46;;;;;;;10.00;5.32;;;9.20;99.90;;;;;;4195823;28;20041;-79
2021/04/10 09:02:08;;;;;;;10.65;4.50;;;9.10;99.90;;;;;;4173272;28;20032;-78
2021/04/10 09:04:12;;;;;;;10.48;4.25;;;9.00;99.90;;;;;;4179310;28;20036;-78
2021/04/10 09:06:22;;;;;;;12.70;5.32;;;8.90;99.90;;;;;;4179422;28;20059;-78
2021/04/10 09:08:28;;;;;;;16.13;4.97;;;8.90;99.90;;;;;;4195906;28;20073;-79
2021/04/10 09:10:29;;;;;;;11.38;4.82;;;9.10;99.90;;;;;;4179297;28;20040;-79
2021/04/10 09:12:30;;;;;;;7.68;4.80;;;9.20;99.90;;;;;;4196072;28;20036;-80
2021/04/10 09:14:45;;;;;;;12.70;4.72;;;9.30;99.90;;;;;;4179426;28;20040;-80
2021/04/10 09:16:50;;;;;;;8.35;3.97;;;9.30;99.90;;;;;;4179339;28;20484;-79
2021/04/10 09:19:24;;;;;;;10.93;4.22;;;9.20;99.90;;;;;;4212340;28;20096;-79
2021/04/10 09:21:35;;;;;;;19.67;5.18;;;9.20;99.90;;;;;;4194260;28;20025;-78
2021/04/10 09:23:37;;;;;;;11.30;4.50;;;9.20;99.90;;;;;;4194366;28;20036;-79
2021/04/10 09:25:38;;;;;;;11.05;4.13;;;9.40;99.90;;;;;;4176711;28;20531;-80
2021/04/10 09:27:39;;;;;;;12.07;4.15;;;9.30;99.90;;;;;;4186203;28;20032;-78
2021/04/10 09:29:52;;;;;;;13.10;4.63;;;9.30;99.90;;;;;;4167946;28;20037;-78
2021/04/10 09:32:02;;;;;;;8.18;4.10;;;9.30;99.90;;;;;;4178868;28;20140;-78
2021/04/10 09:34:04;;;;;;;15.68;4.78;;;9.50;99.90;;;;;;4195222;28;20552;-79
2021/04/10 09:36:05;;;;;;;11.57;4.60;;;9.80;99.90;;;;;;4195317;28;20478;-78
2021/04/10 09:38:06;;;;;;;7.80;4.40;;;10.00;99.90;;;;;;4178755;28;20032;-78
2021/04/10 09:40:20;;;;;;;17.10;4.78;;;10.10;99.90;;;;;;4177944;28;20029;-84
2021/04/10 09:45:07;;;;;;;13.27;5.43;;;10.20;99.90;;;;;;4195698;28;20111;-77
2021/04/10 09:47:08;;;;;;;10.68;5.15;;;10.30;99.90;;;;;;4194432;28;20530;-79
2021/04/10 09:49:46;;;;;;;10.93;5.65;;;10.00;99.90;;;;;;4194337;28;20025;-78
2021/04/10 09:51:47;;;;;;;10.43;4.22;;;10.10;99.90;;;;;;4178485;28;20067;-77
2021/04/10 09:53:49;;;;;;;8.77;4.75;;;9.90;99.90;;;;;;4194539;28;20044;-78
2021/04/10 09:56:07;;;;;;;12.80;4.40;;;9.70;99.90;;;;;;4194764;28;20035;-76
2021/04/10 09:58:14;;;;;;;9.68;4.82;;;9.60;99.90;;;;;;4178346;28;20415;-76
2021/04/10 10:00:16;;;;;;;8.55;5.40;;;9.70;99.90;;;;;;4175681;28;20061;-77
2021/04/10 10:02:27;;;;;;;15.77;5.03;;;9.70;99.90;;;;;;4167596;28;20060;-78
2021/04/10 10:04:27;;;;;;;11.68;4.72;;;9.50;99.90;;;;;;4194710;28;20028;-78
2021/04/10 10:06:34;;;;;;;17.98;5.78;;;9.30;99.90;;;;;;4193997;28;20120;-78
2021/04/10 10:08:35;;;;;;;10.57;5.45;;;9.30;99.90;;;;;;4176504;28;20502;-77
2021/04/10 10:10:42;;;;;;;11.57;5.13;;;9.20;99.90;;;;;;4177634;28;20456;-77
2021/04/10 10:12:42;;;;;;;7.80;4.63;;;9.20;99.90;;;;;;4192778;28;20106;-77
2021/04/10 10:14:47;;;;;;;10.10;4.65;;;9.30;99.90;;;;;;4175372;28;20111;-78
2021/04/10 10:16:48;;;;;;;11.25;4.68;;;9.20;99.90;;;;;;4192548;28;20040;-78
2021/04/10 10:18:48;;;;;;;9.32;4.90;;;9.00;99.90;;;;;;4174427;28;20037;-78
2021/04/10 10:21:08;;;;;;;12.80;5.35;;;8.90;99.90;;;;;;4175685;28;20118;-78
2021/04/10 10:23:16;;;;;;;12.95;5.72;;;8.70;99.90;;;;;;4192129;28;20507;-77
2021/04/10 10:25:18;;;;;;;11.75;6.43;;;8.70;99.90;;;;;;4176384;28;20044;-78
2021/04/10 10:27:38;;;;;;;12.00;4.93;;;8.60;99.90;;;;;;4195685;28;20032;-78
2021/04/10 10:29:39;;;;;;;8.07;4.78;;;8.50;99.90;;;;;;4181755;28;20025;-78
2021/04/10 10:31:42;;;;;;;12.77;5.43;;;8.50;99.90;;;;;;4173455;28;20127;-77
2021/04/10 10:33:43;;;;;;;15.48;6.10;;;8.50;99.90;;;;;;4194242;28;20452;-77
2021/04/10 10:35:51;;;;;;;16.13;5.60;;;8.40;99.90;;;;;;4194640;28;20045;-78
2021/04/10 10:37:52;;;;;;;14.45;6.50;;;8.40;99.90;;;;;;4193997;28;20486;-76
2021/04/10 10:39:53;;;;;;;11.52;5.78;;;8.40;99.90;;;;;;4194500;28;20052;-78
2021/04/10 10:41:55;;;;;;;16.73;6.18;;;8.40;99.90;;;;;;4178072;28;20056;-79
2021/04/10 10:44:02;;;;;;;14.40;6.10;;;8.30;99.90;;;;;;4195009;28;20068;-79
2021/04/10 10:46:09;;;;;;;8.88;5.22;;;8.30;99.90;;;;;;4193897;28;20457;-79
2021/04/10 10:48:24;;;;;;;11.10;5.90;;;8.20;99.90;;;;;;4177713;28;20037;-78